Terminal Aerodrome Forecast
Issued by NWS

Home | Current Version | Previous Version | Text Only | Print | Product List | Glossary On
Versions: 1 2 3 4 5 6 7 8 9 10 11 12 13 14 15 16 17 18 19 20
000
FTUS43 KSGF 251349 AAA
TAFJLN
TAF AMD
KJLN 251349Z 2514/2612 31008KT 3SM -RA SCT035 OVC060
     FM251500 VRB03KT 6SM -SHRA BKN025 OVC060
     FM251900 22005KT 5SM -SHRA BR OVC015
     FM260000 34005KT 5SM -SHRA BR OVC008=

USA.gov is the U.S. government's official web portal to all federal, state and local government web resources and services.